createdAt,value
2023-03-02T00:02:48.616Z,101141.12
2023-03-02T00:06:28.278Z,101151.67
2023-03-02T00:10:35.722Z,101149.27
2023-03-02T00:14:26.295Z,101151.90
2023-03-02T00:18:22.453Z,101148.92
2023-03-02T00:22:11.867Z,101152.77
2023-03-02T00:26:26.769Z,101157.31
2023-03-02T00:29:49.715Z,101153.70
2023-03-02T00:33:05.437Z,101149.09
2023-03-02T00:35:41.487Z,101149.04
2023-03-02T00:38:14.433Z,101142.81
2023-03-02T00:40:48.374Z,101141.49
2023-03-02T00:43:19.011Z,101140.11
2023-03-02T00:45:52.142Z,101131.95
2023-03-02T00:48:28.670Z,101131.50
2023-03-02T00:51:01.576Z,101122.77
2023-03-02T00:53:31.141Z,101120.36
2023-03-02T00:56:02.748Z,101120.04
2023-03-02T00:58:36.486Z,101117.27
2023-03-02T01:01:15.134Z,101118.77
2023-03-02T01:10:42.490Z,101112.61
2023-03-02T01:13:13.863Z,101112.64
2023-03-02T01:15:45.296Z,101113.71
2023-03-02T01:18:16.397Z,101112.75
2023-03-02T01:20:48.295Z,101117.13
2023-03-02T01:23:21.409Z,101111.03
2023-03-02T01:25:54.955Z,101113.51
2023-03-02T01:28:29.736Z,101111.39
2023-03-02T01:31:01.786Z,101105.48
2023-03-02T01:33:34.749Z,101102.02
2023-03-02T01:36:06.734Z,101104.15
2023-03-02T01:38:37.568Z,101103.66
2023-03-02T01:41:10.768Z,101099.94
2023-03-02T01:43:41.975Z,101102.16
2023-03-02T01:46:15.437Z,101103.94
2023-03-02T01:49:02.669Z,101096.73
2023-03-02T01:51:46.633Z,101094.73
2023-03-02T01:54:23.466Z,101086.29
2023-03-02T01:57:03.958Z,101085.85
2023-03-02T01:59:37.790Z,101081.55
2023-03-02T02:02:12.273Z,101079.11
2023-03-02T02:04:47.665Z,101080.18
2023-03-02T02:07:20.673Z,101074.20
2023-03-02T02:09:54.723Z,101075.64
2023-03-02T02:12:26.959Z,101069.07
2023-03-02T02:15:01.091Z,101065.13
2023-03-02T02:17:34.265Z,101060.68
2023-03-02T02:20:29.481Z,101059.50
2023-03-02T02:23:21.572Z,101058.29
2023-03-02T02:25:55.198Z,101060.65
2023-03-02T02:28:40.308Z,101060.02
2023-03-02T02:31:21.623Z,101059.33
2023-03-02T02:33:58.512Z,101056.31
2023-03-02T02:36:34.393Z,101055.34
2023-03-02T02:39:10.837Z,101060.04
2023-03-02T02:41:42.125Z,101061.71
2023-03-02T02:44:18.095Z,101064.38
2023-03-02T02:46:50.356Z,101054.69
2023-03-02T02:49:34.624Z,101051.83
2023-03-02T02:52:08.226Z,101053.13
2023-03-02T02:54:41.360Z,101049.30
2023-03-02T02:57:18.150Z,101048.92
2023-03-02T02:59:55.732Z,101048.33
2023-03-02T03:02:31.713Z,101050.61
2023-03-02T03:05:07.519Z,101052.89
2023-03-02T03:07:37.583Z,101053.64
2023-03-02T03:10:31.008Z,101051.75
2023-03-02T03:13:02.167Z,101048.23
2023-03-02T03:15:35.584Z,101052.02
2023-03-02T03:18:06.357Z,101053.19
2023-03-02T03:20:38.164Z,101053.51
2023-03-02T03:23:09.484Z,101051.13
2023-03-02T03:25:41.737Z,101050.14
2023-03-02T03:28:14.324Z,101048.39
2023-03-02T03:30:44.974Z,101046.70
2023-03-02T03:33:17.747Z,101047.20
2023-03-02T03:35:49.689Z,101051.60
2023-03-02T03:38:21.906Z,101050.99
2023-03-02T03:40:56.109Z,101054.02
2023-03-02T03:43:27.576Z,101058.73
2023-03-02T03:45:58.236Z,101057.89
2023-03-02T03:48:29.320Z,101054.43
2023-03-02T03:51:02.542Z,101055.48
2023-03-02T03:53:33.453Z,101057.82
2023-03-02T03:56:04.541Z,101054.89
2023-03-02T03:58:35.977Z,101054.17
2023-03-02T04:01:07.535Z,101051.74
2023-03-02T04:03:38.953Z,101052.11
2023-03-02T04:06:19.346Z,101048.29
2023-03-02T04:08:50.430Z,101047.39
2023-03-02T04:11:21.220Z,101048.80
2023-03-02T04:13:51.109Z,101051.25
2023-03-02T04:16:21.932Z,101047.11
2023-03-02T04:18:53.109Z,101048.29
2023-03-02T04:21:25.173Z,101050.05
2023-03-02T04:23:57.895Z,101047.94
2023-03-02T04:26:29.384Z,101047.31
2023-03-02T04:29:04.231Z,101050.66
2023-03-02T04:31:34.780Z,101048.58
2023-03-02T04:34:06.996Z,101050.27
2023-03-02T04:36:41.331Z,101048.91
2023-03-02T04:39:18.882Z,101044.95
2023-03-02T04:41:53.061Z,101044.86
2023-03-02T04:44:25.780Z,101049.02
2023-03-02T04:46:58.699Z,101050.70
2023-03-02T04:49:29.134Z,101046.63
2023-03-02T04:52:00.391Z,101049.32
2023-03-02T04:54:33.846Z,101047.33
2023-03-02T04:57:05.557Z,101048.68
2023-03-02T04:59:35.742Z,101053.31
2023-03-02T05:02:06.223Z,101060.12
2023-03-02T05:04:36.794Z,101057.83
2023-03-02T05:07:08.094Z,101061.55
2023-03-02T05:09:40.579Z,101063.38
2023-03-02T05:12:10.288Z,101068.39
2023-03-02T05:14:40.588Z,101067.55
2023-03-02T05:17:20.830Z,101066.27
2023-03-02T05:19:52.308Z,101064.00
2023-03-02T05:22:22.747Z,101062.88
2023-03-02T05:24:53.753Z,101063.15
2023-03-02T05:27:24.790Z,101061.76
2023-03-02T05:29:55.205Z,101065.42
2023-03-02T05:32:25.905Z,101068.05
2023-03-02T05:34:57.328Z,101069.08
2023-03-02T05:37:29.547Z,101073.45
2023-03-02T05:40:00.552Z,101077.79
2023-03-02T05:42:31.060Z,101077.30
2023-03-02T05:45:01.583Z,101079.20
2023-03-02T05:47:31.322Z,101076.23
2023-03-02T05:50:02.914Z,101081.44
2023-03-02T05:52:33.510Z,101078.33
2023-03-02T05:55:04.378Z,101076.48
2023-03-02T05:57:36.038Z,101077.60
2023-03-02T06:00:07.324Z,101080.41
2023-03-02T06:02:42.818Z,101082.55
2023-03-02T06:05:16.159Z,101075.48
2023-03-02T06:07:49.278Z,101072.60
2023-03-02T06:10:19.914Z,101068.08
2023-03-02T06:12:49.348Z,101066.98
2023-03-02T06:15:19.252Z,101064.41
2023-03-02T06:17:51.684Z,101069.16
2023-03-02T06:20:22.089Z,101067.64
2023-03-02T06:22:51.442Z,101063.90
2023-03-02T06:25:25.007Z,101064.23
2023-03-02T06:27:57.341Z,101065.38
2023-03-02T06:30:28.351Z,101067.84
2023-03-02T06:33:00.284Z,101069.87
2023-03-02T06:35:31.376Z,101065.91
2023-03-02T06:38:00.414Z,101064.36
2023-03-02T06:40:32.386Z,101062.52
2023-03-02T06:43:04.211Z,101065.39
2023-03-02T06:45:38.185Z,101063.39
2023-03-02T06:48:08.434Z,101066.20
2023-03-02T06:50:38.225Z,101069.27
2023-03-02T06:53:09.370Z,101073.52
2023-03-02T06:55:40.768Z,101074.07
2023-03-02T06:58:15.030Z,101076.27
2023-03-02T07:00:46.864Z,101074.66
2023-03-02T07:03:18.253Z,101074.03
2023-03-02T07:05:49.283Z,101069.75
2023-03-02T07:08:19.315Z,101064.56
2023-03-02T07:10:50.179Z,101065.77
2023-03-02T07:13:21.883Z,101068.70
2023-03-02T07:15:52.939Z,101067.67
2023-03-02T07:18:24.417Z,101065.01
2023-03-02T07:20:56.373Z,101063.73
2023-03-02T07:23:27.733Z,101063.00
2023-03-02T07:26:01.296Z,101061.66
2023-03-02T07:28:31.815Z,101062.10
2023-03-02T07:31:01.684Z,101056.71
2023-03-02T07:33:34.733Z,101049.14
2023-03-02T07:36:04.698Z,101041.84
2023-03-02T07:38:35.419Z,101045.76
2023-03-02T07:41:16.212Z,101044.00
2023-03-02T07:43:49.243Z,101040.75
2023-03-02T07:46:20.655Z,101042.30
2023-03-02T07:48:51.968Z,101052.82
2023-03-02T07:51:22.388Z,101047.43
2023-03-02T07:53:56.489Z,101045.96
2023-03-02T07:56:26.927Z,101053.69
2023-03-02T07:58:59.462Z,101055.02
2023-03-02T08:01:30.967Z,101054.15
2023-03-02T08:04:01.677Z,101059.72
2023-03-02T08:06:32.881Z,101060.32
2023-03-02T08:09:05.256Z,101056.48
2023-03-02T08:11:37.977Z,101061.73
2023-03-02T08:14:07.545Z,101060.33
2023-03-02T08:16:38.017Z,101064.49
2023-03-02T08:19:09.541Z,101070.41
2023-03-02T08:21:40.063Z,101067.30
2023-03-02T08:24:12.902Z,101067.61
2023-03-02T08:26:43.558Z,101061.23
2023-03-02T08:29:16.015Z,101051.54
2023-03-02T08:31:49.075Z,101051.56
2023-03-02T08:34:19.131Z,101041.41
2023-03-02T08:36:50.213Z,101039.42
2023-03-02T08:39:22.951Z,101039.75
2023-03-02T08:41:54.386Z,101038.85
2023-03-02T08:44:27.305Z,101038.56
2023-03-02T08:47:03.165Z,101030.61
2023-03-02T08:49:48.007Z,101031.07
2023-03-02T08:52:42.393Z,101032.23
2023-03-02T08:55:19.051Z,101024.36
2023-03-02T08:58:00.129Z,101024.29
2023-03-02T09:00:37.158Z,101026.06
2023-03-02T09:03:23.970Z,101020.21
2023-03-02T09:06:42.768Z,101016.70
2023-03-02T09:09:30.939Z,101015.63
2023-03-02T09:12:42.630Z,101016.58
2023-03-02T09:15:53.765Z,101010.55
2023-03-02T09:18:45.249Z,101013.89
2023-03-02T09:21:42.088Z,101013.73
2023-03-02T09:24:18.146Z,101014.50
2023-03-02T09:26:59.293Z,101012.36
2023-03-02T09:29:32.356Z,101015.79
2023-03-02T09:32:17.349Z,101009.48
2023-03-02T09:34:50.210Z,101007.56
2023-03-02T09:37:25.604Z,101005.79
2023-03-02T09:39:57.404Z,101005.75
2023-03-02T09:43:06.429Z,100999.01
2023-03-02T09:46:17.337Z,101002.40
2023-03-02T09:57:21.371Z,100996.31
2023-03-02T10:00:27.508Z,100991.21
2023-03-02T10:03:16.692Z,100992.66
2023-03-02T10:05:59.545Z,100988.80
2023-03-02T10:08:40.031Z,100987.26
2023-03-02T10:11:39.888Z,100988.73
2023-03-02T10:14:23.778Z,100980.72
2023-03-02T10:17:15.026Z,100983.66
2023-03-02T10:20:00.506Z,100983.17
2023-03-02T10:22:45.388Z,100982.35
2023-03-02T10:25:51.508Z,100984.25
2023-03-02T10:28:37.788Z,100978.60
2023-03-02T10:31:25.431Z,100978.11
2023-03-02T10:33:56.248Z,100973.33
2023-03-02T10:36:31.056Z,100975.98
2023-03-02T10:39:05.991Z,100968.52
2023-03-02T10:41:41.880Z,100971.16
2023-03-02T10:44:41.395Z,100970.08
2023-03-02T10:47:26.792Z,100967.86
2023-03-02T10:50:08.940Z,100964.62
2023-03-02T10:52:59.459Z,100959.31
2023-03-02T10:55:56.066Z,100958.52
2023-03-02T10:58:38.614Z,100949.59
2023-03-02T11:01:24.541Z,100945.41
2023-03-02T11:04:18.534Z,100945.05
2023-03-02T11:06:55.339Z,100943.18
2023-03-02T11:09:33.725Z,100937.61
2023-03-02T11:12:43.668Z,100934.52
2023-03-02T11:15:32.533Z,100934.09
2023-03-02T11:18:27.721Z,100931.16
2023-03-02T11:21:16.813Z,100936.55
2023-03-02T11:24:21.966Z,100931.98
2023-03-02T11:27:06.148Z,100927.23
2023-03-02T11:30:01.241Z,100924.92
2023-03-02T11:33:05.995Z,100919.21
2023-03-02T11:36:28.279Z,100916.02
2023-03-02T11:39:19.872Z,100912.20
2023-03-02T11:41:58.936Z,100914.70
2023-03-02T11:44:35.721Z,100909.17
2023-03-02T11:47:16.516Z,100907.23
2023-03-02T11:50:00.878Z,100911.58
2023-03-02T11:52:40.452Z,100914.28
2023-03-02T11:55:14.293Z,100908.30
2023-03-02T11:57:50.852Z,100911.90
2023-03-02T12:00:33.383Z,100907.21
2023-03-02T12:03:08.912Z,100905.45
2023-03-02T12:05:40.787Z,100904.10
2023-03-02T12:08:16.268Z,100897.39
2023-03-02T12:11:23.128Z,100895.94
2023-03-02T12:13:58.012Z,100896.00
2023-03-02T12:16:44.459Z,100889.65
2023-03-02T12:19:41.214Z,100887.56
2023-03-02T12:22:34.059Z,100891.88
2023-03-02T12:25:25.406Z,100893.54
2023-03-02T12:28:03.108Z,100891.23
2023-03-02T12:30:37.034Z,100883.70
2023-03-02T12:33:12.224Z,100886.77
2023-03-02T12:35:49.176Z,100877.27
2023-03-02T12:38:29.938Z,100875.48
2023-03-02T12:41:20.307Z,100876.70
2023-03-02T12:44:23.485Z,100872.73
2023-03-02T12:46:54.268Z,100875.55
2023-03-02T12:49:46.401Z,100872.56
2023-03-02T12:52:38.093Z,100868.39
2023-03-02T12:55:22.523Z,100868.46
2023-03-02T12:58:03.632Z,100866.23
2023-03-02T13:00:41.316Z,100861.36
2023-03-02T13:03:19.159Z,100860.67
2023-03-02T13:05:52.855Z,100855.71
2023-03-02T13:08:29.079Z,100856.20
2023-03-02T13:11:02.841Z,100858.77
2023-03-02T13:13:40.621Z,100853.70
2023-03-02T13:16:41.747Z,100850.13
2023-03-02T13:19:17.299Z,100844.27
2023-03-02T13:21:47.343Z,100840.73
2023-03-02T13:24:49.143Z,100834.62
2023-03-02T13:27:26.411Z,100828.63
2023-03-02T13:30:09.737Z,100827.21
2023-03-02T13:32:42.448Z,100826.55
2023-03-02T13:35:29.200Z,100821.95
2023-03-02T13:38:05.207Z,100823.92
2023-03-02T13:40:52.439Z,100824.77
2023-03-02T13:43:40.800Z,100829.28
2023-03-02T13:46:18.892Z,100826.17
2023-03-02T13:49:10.217Z,100823.69
2023-03-02T13:51:46.741Z,100820.31
2023-03-02T13:54:22.647Z,100818.66
2023-03-02T13:56:54.247Z,100815.25
2023-03-02T13:59:25.834Z,100814.55
2023-03-02T14:01:58.056Z,100807.14
2023-03-02T14:04:29.702Z,100804.70
2023-03-02T14:07:00.112Z,100801.81
2023-03-02T14:09:29.941Z,100799.01
2023-03-02T14:12:00.510Z,100798.94
2023-03-02T14:14:41.193Z,100791.30
2023-03-02T14:17:17.332Z,100785.69
2023-03-02T14:19:52.919Z,100780.20
2023-03-02T14:22:30.608Z,100778.38
2023-03-02T14:25:01.394Z,100773.06
2023-03-02T14:27:31.878Z,100773.71
2023-03-02T14:30:13.303Z,100770.41
2023-03-02T14:32:44.554Z,100767.02
2023-03-02T14:35:16.208Z,100760.67
2023-03-02T14:37:51.360Z,100757.11
2023-03-02T14:40:29.393Z,100758.24
2023-03-02T14:43:00.369Z,100755.25
2023-03-02T14:45:31.827Z,100749.79
2023-03-02T14:48:01.969Z,100748.84
2023-03-02T14:50:36.843Z,100749.95
2023-03-02T14:53:13.269Z,100746.03
2023-03-02T14:55:45.244Z,100751.40
2023-03-02T14:58:20.484Z,100747.98
2023-03-02T15:00:51.560Z,100748.55
2023-03-02T15:03:25.924Z,100742.02
2023-03-02T15:06:02.082Z,100740.71
2023-03-02T15:08:31.910Z,100738.42
2023-03-02T15:11:00.909Z,100735.07
2023-03-02T15:13:32.984Z,100735.73
2023-03-02T15:16:03.209Z,100738.27
2023-03-02T15:18:34.286Z,100735.86
2023-03-02T15:21:06.219Z,100734.53
2023-03-02T15:23:38.288Z,100735.48
2023-03-02T15:26:09.802Z,100733.14
2023-03-02T15:28:39.148Z,100729.44
2023-03-02T15:31:16.362Z,100726.88
2023-03-02T15:33:48.838Z,100726.81
2023-03-02T15:36:18.497Z,100731.96
2023-03-02T15:38:52.082Z,100729.88
2023-03-02T15:41:23.663Z,100730.52
2023-03-02T15:44:00.467Z,100729.59
2023-03-02T15:46:38.286Z,100727.77
2023-03-02T15:49:09.700Z,100725.34
2023-03-02T15:51:41.230Z,100727.09
2023-03-02T15:54:12.101Z,100729.42
2023-03-02T15:56:45.313Z,100726.33
2023-03-02T15:59:14.866Z,100722.84
2023-03-02T16:01:45.353Z,100721.57
2023-03-02T16:04:16.910Z,100717.98
2023-03-02T16:06:50.652Z,100718.92
2023-03-02T16:09:25.805Z,100718.97
2023-03-02T16:11:56.876Z,100710.66
2023-03-02T16:14:26.868Z,100710.93
2023-03-02T16:16:57.645Z,100706.80
2023-03-02T16:19:28.645Z,100705.38
2023-03-02T16:21:59.568Z,100701.83
2023-03-02T16:24:34.285Z,100703.30
2023-03-02T16:27:07.370Z,100709.19
2023-03-02T16:29:38.782Z,100703.85
2023-03-02T16:32:11.538Z,100702.79
2023-03-02T16:34:43.665Z,100705.44
2023-03-02T16:37:14.916Z,100702.06
2023-03-02T16:39:47.587Z,100704.60
2023-03-02T16:42:19.086Z,100704.70
2023-03-02T16:44:52.814Z,100705.91
2023-03-02T16:47:23.180Z,100707.30
2023-03-02T16:49:52.697Z,100704.84
2023-03-02T16:52:23.335Z,100705.27
2023-03-02T16:54:55.085Z,100703.98
2023-03-02T16:57:28.044Z,100703.16
2023-03-02T16:59:59.877Z,100705.46
2023-03-02T17:02:31.020Z,100707.52
2023-03-02T17:05:03.189Z,100706.80
2023-03-02T17:07:37.019Z,100705.83
2023-03-02T17:10:14.309Z,100706.65
2023-03-02T17:12:47.496Z,100704.05
2023-03-02T17:15:19.923Z,100702.09
2023-03-02T17:17:54.213Z,100702.33
2023-03-02T17:20:26.197Z,100705.00
2023-03-02T17:22:57.403Z,100711.73
2023-03-02T17:25:27.544Z,100716.55
2023-03-02T17:27:59.499Z,100713.17
2023-03-02T17:30:32.578Z,100718.47
2023-03-02T17:33:03.762Z,100718.39
2023-03-02T17:35:35.444Z,100719.96
2023-03-02T17:38:06.566Z,100718.29
2023-03-02T17:40:39.242Z,100717.50
2023-03-02T17:43:16.852Z,100718.98
2023-03-02T17:45:55.597Z,100722.23
2023-03-02T17:48:34.997Z,100720.73
2023-03-02T17:51:19.292Z,100719.90
2023-03-02T17:53:53.903Z,100718.98
2023-03-02T17:56:33.558Z,100721.13
2023-03-02T17:59:07.160Z,100714.53
2023-03-02T18:01:39.422Z,100716.19
2023-03-02T18:04:10.398Z,100712.70
2023-03-02T18:06:42.534Z,100713.94
2023-03-02T18:09:14.621Z,100706.33
2023-03-02T18:11:45.725Z,100706.39
2023-03-02T18:14:22.457Z,100707.14
2023-03-02T18:16:57.140Z,100701.49
2023-03-02T18:19:30.916Z,100703.71
2023-03-02T18:22:03.792Z,100703.77
2023-03-02T18:24:37.842Z,100703.23
2023-03-02T18:27:10.510Z,100701.45
2023-03-02T18:29:45.610Z,100702.85
2023-03-02T18:32:16.520Z,100703.64
2023-03-02T18:34:49.005Z,100703.84
2023-03-02T18:37:26.167Z,100701.41
2023-03-02T18:40:04.481Z,100701.04
2023-03-02T18:42:35.918Z,100701.98
2023-03-02T18:45:09.395Z,100705.30
2023-03-02T18:47:44.761Z,100705.44
2023-03-02T18:50:20.280Z,100703.98
2023-03-02T18:52:56.461Z,100707.31
2023-03-02T18:55:28.840Z,100707.23
2023-03-02T18:57:59.640Z,100706.80
2023-03-02T19:00:31.920Z,100705.55
2023-03-02T19:03:09.527Z,100708.31
2023-03-02T19:05:44.857Z,100706.95
2023-03-02T19:08:16.426Z,100709.92
2023-03-02T19:10:52.184Z,100705.45
2023-03-02T19:13:25.847Z,100706.52
2023-03-02T19:16:03.804Z,100711.11
2023-03-02T19:18:35.162Z,100708.41
2023-03-02T19:21:08.854Z,100708.48
2023-03-02T19:23:42.373Z,100707.99
2023-03-02T19:26:13.298Z,100704.41
2023-03-02T19:28:48.765Z,100704.73
2023-03-02T19:31:36.812Z,100702.86
2023-03-02T19:34:11.932Z,100703.91
2023-03-02T19:36:44.805Z,100705.70
2023-03-02T19:39:17.392Z,100706.07
2023-03-02T19:41:54.892Z,100706.55
2023-03-02T19:44:29.502Z,100705.30
2023-03-02T19:47:02.666Z,100703.89
2023-03-02T19:49:35.006Z,100703.89
2023-03-02T19:52:11.668Z,100703.70
2023-03-02T19:54:44.947Z,100700.37
2023-03-02T19:57:21.596Z,100696.47
2023-03-02T19:59:56.856Z,100698.23
2023-03-02T20:02:35.583Z,100700.77
2023-03-02T20:05:10.325Z,100705.13
2023-03-02T20:07:43.880Z,100696.18
2023-03-02T20:10:41.066Z,100693.45
2023-03-02T20:13:20.786Z,100691.98
2023-03-02T20:16:30.677Z,100693.17
2023-03-02T20:19:28.317Z,100695.27
2023-03-02T20:22:05.201Z,100690.33
2023-03-02T20:24:54.758Z,100687.06
2023-03-02T20:27:28.204Z,100686.70
2023-03-02T20:30:20.824Z,100684.72
2023-03-02T20:33:03.714Z,100677.27
2023-03-02T20:35:47.091Z,100677.80
2023-03-02T20:38:50.935Z,100680.73
2023-03-02T20:41:26.451Z,100675.40
2023-03-02T20:44:02.897Z,100673.81
2023-03-02T20:46:43.048Z,100676.84
2023-03-02T20:49:22.064Z,100672.91
2023-03-02T20:52:00.792Z,100668.83
2023-03-02T20:54:38.291Z,100664.95
2023-03-02T20:57:15.007Z,100663.00
2023-03-02T20:59:47.152Z,100659.85
2023-03-02T21:02:29.800Z,100661.15
2023-03-02T21:05:00.818Z,100654.89
2023-03-02T21:07:35.699Z,100651.92
2023-03-02T21:10:16.949Z,100656.98
2023-03-02T21:12:50.299Z,100653.92
2023-03-02T21:15:25.746Z,100652.90
2023-03-02T21:18:00.235Z,100651.76
2023-03-02T21:20:36.078Z,100648.45
2023-03-02T21:23:08.452Z,100646.27
2023-03-02T21:25:42.444Z,100648.28
2023-03-02T21:28:15.236Z,100650.25
2023-03-02T21:30:47.592Z,100647.90
2023-03-02T21:33:17.099Z,100641.43
2023-03-02T21:35:49.081Z,100638.12
2023-03-02T21:38:22.879Z,100639.52
2023-03-02T21:40:53.674Z,100642.50
2023-03-02T21:43:24.865Z,100639.46
2023-03-02T21:45:54.812Z,100641.65
2023-03-02T21:48:29.008Z,100642.58
2023-03-02T21:50:59.477Z,100640.45
2023-03-02T21:53:29.145Z,100642.79
2023-03-02T21:56:01.411Z,100644.95
2023-03-02T21:58:30.956Z,100644.15
2023-03-02T22:01:03.568Z,100639.49
2023-03-02T22:03:33.756Z,100636.58
2023-03-02T22:06:03.047Z,100634.59
2023-03-02T22:08:35.667Z,100632.11
2023-03-02T22:11:05.179Z,100626.66
2023-03-02T22:13:37.695Z,100632.31
2023-03-02T22:16:17.737Z,100628.67
2023-03-02T22:18:49.875Z,100625.67
2023-03-02T22:21:38.455Z,100619.59
2023-03-02T22:24:21.007Z,100615.04
2023-03-02T22:26:55.809Z,100610.84
2023-03-02T22:29:40.808Z,100614.70
2023-03-02T22:32:31.481Z,100618.10
2023-03-02T22:35:08.878Z,100615.94
2023-03-02T22:37:42.446Z,100614.05
2023-03-02T22:40:32.876Z,100619.38
2023-03-02T22:43:21.550Z,100617.11
2023-03-02T22:45:58.005Z,100610.48
2023-03-02T22:48:29.840Z,100609.24
2023-03-02T22:51:16.718Z,100609.80
2023-03-02T22:53:57.696Z,100610.59
2023-03-02T22:56:37.822Z,100607.68
2023-03-02T22:59:22.052Z,100603.59
2023-03-02T23:02:01.948Z,100600.04
2023-03-02T23:04:38.744Z,100596.81
2023-03-02T23:07:18.640Z,100590.50
2023-03-02T23:09:50.036Z,100589.31
2023-03-02T23:12:22.954Z,100589.16
2023-03-02T23:14:58.229Z,100584.23
2023-03-02T23:17:28.939Z,100585.96
2023-03-02T23:19:59.450Z,100591.45
2023-03-02T23:22:32.925Z,100585.27
2023-03-02T23:25:06.698Z,100582.08
2023-03-02T23:27:35.978Z,100580.31
2023-03-02T23:30:07.544Z,100577.80
2023-03-02T23:32:37.330Z,100576.46
2023-03-02T23:35:10.382Z,100578.89
2023-03-02T23:37:42.110Z,100576.58
2023-03-02T23:40:15.068Z,100572.42
2023-03-02T23:42:49.603Z,100565.73
2023-03-02T23:45:20.922Z,100564.92
2023-03-02T23:47:49.845Z,100562.98
2023-03-02T23:50:19.784Z,100561.48
2023-03-02T23:52:52.760Z,100565.08
2023-03-02T23:55:22.969Z,100563.41
2023-03-02T23:57:53.998Z,100556.48
